Time;durP1;ratioP1;P1;durP2;ratioP2;P2;SDS_P1;SDS_P2;PMS_P1;PMS_P2;Temp;Humidity;BMP_temperature;BMP_pressure;BME280_temperature;BME280_humidity;BME280_pressure;Samples;Min_cycle;Max_cycle;Signal;HPM_P1;HPM_P2
2021/10/13 00:01:36;;;;;;;15.32;4.65;;;;;;;;;;5081458;28;20029;-64
2021/10/13 00:04:02;;;;;;;21.13;4.70;;;;;;;;;;5082331;28;20020;-62
2021/10/13 00:06:28;;;;;;;15.10;4.65;;;;;;;;;;5084482;28;20107;-63
2021/10/13 00:08:54;;;;;;;15.10;4.90;;;;;;;;;;5082790;28;20028;-64
2021/10/13 00:11:20;;;;;;;17.15;4.72;;;;;;;;;;5082372;28;20016;-61
2021/10/13 00:13:46;;;;;;;17.20;4.38;;;;;;;;;;5082317;28;20033;-63
2021/10/13 00:16:13;;;;;;;17.02;5.32;;;;;;;;;;5082018;28;20082;-62
2021/10/13 00:18:39;;;;;;;17.15;4.70;;;;;;;;;;5072899;28;20024;-60
2021/10/13 00:21:05;;;;;;;21.13;5.53;;;;;;;;;;5071344;28;20066;-64
2021/10/13 00:23:31;;;;;;;18.15;5.25;;;;;;;;;;5072501;28;20033;-62
2021/10/13 00:25:57;;;;;;;16.65;4.95;;;;;;;;;;5072346;28;20032;-62
2021/10/13 00:28:23;;;;;;;14.05;4.90;;;;;;;;;;5071460;28;20384;-62
2021/10/13 00:30:49;;;;;;;15.65;4.95;;;;;;;;;;5070881;28;20021;-60
2021/10/13 00:33:15;;;;;;;14.93;4.65;;;;;;;;;;5072381;28;20048;-62
2021/10/13 00:35:41;;;;;;;22.17;4.93;;;;;;;;;;5072258;28;20029;-63
2021/10/13 00:38:07;;;;;;;16.75;5.68;;;;;;;;;;5071085;28;20035;-63
2021/10/13 00:40:33;;;;;;;13.40;4.13;;;;;;;;;;5071953;28;20028;-60
2021/10/13 00:42:59;;;;;;;14.40;5.05;;;;;;;;;;5072051;28;20027;-62
2021/10/13 00:45:25;;;;;;;14.95;4.35;;;;;;;;;;5070747;28;20029;-64
2021/10/13 00:47:51;;;;;;;18.80;5.63;;;;;;;;;;5070975;28;20427;-64
2021/10/13 00:50:17;;;;;;;17.88;4.97;;;;;;;;;;5070669;28;20039;-61
2021/10/13 00:52:44;;;;;;;20.02;6.03;;;;;;;;;;5071096;28;20400;-63
2021/10/13 00:55:17;;;;;;;16.75;4.50;;;;;;;;;;5071913;28;20024;-63
2021/10/13 00:57:44;;;;;;;17.30;4.95;;;;;;;;;;5071029;28;20063;-63
2021/10/13 01:00:10;;;;;;;20.88;4.90;;;;;;;;;;5070607;28;20031;-64
2021/10/13 01:02:41;;;;;;;15.65;4.60;;;;;;;;;;5070594;28;20175;-63
2021/10/13 01:05:07;;;;;;;18.92;5.78;;;;;;;;;;5071954;28;20396;-63
2021/10/13 01:07:39;;;;;;;15.00;4.55;;;;;;;;;;5072255;28;20032;-63
2021/10/13 01:10:05;;;;;;;20.67;5.78;;;;;;;;;;5071769;28;20247;-63
2021/10/13 01:12:55;;;;;;;15.27;5.25;;;;;;;;;;5071918;28;20485;-64
2021/10/13 01:15:30;;;;;;;20.70;5.53;;;;;;;;;;5071947;28;20416;-62
2021/10/13 01:18:05;;;;;;;18.15;5.20;;;;;;;;;;5070450;28;20034;-63
2021/10/13 01:20:37;;;;;;;15.50;4.65;;;;;;;;;;5070226;28;20025;-61
2021/10/13 01:23:08;;;;;;;17.25;4.68;;;;;;;;;;5071691;28;20028;-64
2021/10/13 01:25:47;;;;;;;16.20;4.97;;;;;;;;;;5071715;28;20032;-63
2021/10/13 01:28:14;;;;;;;17.13;4.75;;;;;;;;;;5070413;28;20028;-64
2021/10/13 01:30:43;;;;;;;15.43;4.88;;;;;;;;;;5071428;28;20080;-64
2021/10/13 01:33:08;;;;;;;;;;;;;;;;;;5072180;28;20510;-64
2021/10/13 01:35:39;;;;;;;17.83;7.18;;;;;;;;;;5070303;28;19940;-61
2021/10/13 01:38:07;;;;;;;18.00;5.70;;;;;;;;;;5071657;28;20052;-64
2021/10/13 01:40:34;;;;;;;14.57;4.95;;;;;;;;;;5071510;28;20448;-63
2021/10/13 01:43:01;;;;;;;16.40;5.80;;;;;;;;;;5071421;28;20033;-64
2021/10/13 01:45:27;;;;;;;16.10;5.45;;;;;;;;;;5070121;28;20064;-64
2021/10/13 01:47:54;;;;;;;20.95;5.95;;;;;;;;;;5071535;28;20044;-64
2021/10/13 01:50:20;;;;;;;17.88;5.30;;;;;;;;;;5071346;28;20380;-63
2021/10/13 01:52:48;;;;;;;17.75;5.20;;;;;;;;;;5071462;28;20032;-64
2021/10/13 01:55:15;;;;;;;16.10;4.72;;;;;;;;;;5070092;28;20492;-61
2021/10/13 01:57:43;;;;;;;20.23;5.30;;;;;;;;;;5071392;28;20036;-63
2021/10/13 02:00:09;;;;;;;;;;;;;;;;;;5071981;28;20120;-64
2021/10/13 02:02:36;;;;;;;15.88;5.10;;;;;;;;;;5071416;28;20383;-63
2021/10/13 02:05:03;;;;;;;14.43;5.10;;;;;;;;;;5074217;28;20499;-63
2021/10/13 02:07:31;;;;;;;13.75;4.70;;;;;;;;;;5075235;28;20388;-63
2021/10/13 02:10:03;;;;;;;16.55;4.97;;;;;;;;;;5075038;28;20017;-62
2021/10/13 02:12:29;;;;;;;16.08;4.90;;;;;;;;;;5074905;28;20109;-63
2021/10/13 02:14:56;;;;;;;13.63;4.75;;;;;;;;;;5074909;28;20036;-64
2021/10/13 02:17:23;;;;;;;16.83;5.47;;;;;;;;;;5074961;28;20021;-63
2021/10/13 02:19:49;;;;;;;16.63;5.20;;;;;;;;;;5073375;28;20094;-62
2021/10/13 02:22:16;;;;;;;15.00;4.72;;;;;;;;;;5074719;28;20029;-64
2021/10/13 02:24:44;;;;;;;14.80;4.93;;;;;;;;;;5073396;28;20675;-63
2021/10/13 02:27:13;;;;;;;16.33;5.00;;;;;;;;;;5074705;28;20075;-64
2021/10/13 02:29:39;;;;;;;18.08;4.65;;;;;;;;;;5073100;28;20111;-64
2021/10/13 02:32:08;;;;;;;17.65;5.60;;;;;;;;;;5074591;28;20373;-64
2021/10/13 02:34:34;;;;;;;16.27;4.72;;;;;;;;;;5074514;28;20065;-64
2021/10/13 02:37:00;;;;;;;15.70;4.88;;;;;;;;;;5073108;28;20039;-64
2021/10/13 02:39:26;;;;;;;15.05;4.68;;;;;;;;;;5074501;28;20052;-63
2021/10/13 02:41:52;;;;;;;12.73;4.85;;;;;;;;;;5074102;28;20087;-64
2021/10/13 02:44:18;;;;;;;15.07;4.43;;;;;;;;;;5074197;28;20041;-62
2021/10/13 02:46:49;;;;;;;14.90;4.80;;;;;;;;;;5074521;28;20066;-62
2021/10/13 02:49:33;;;;;;;15.48;5.10;;;;;;;;;;5074495;28;20021;-60
2021/10/13 02:52:19;;;;;;;24.95;7.50;;;;;;;;;;5073179;28;20484;-63
2021/10/13 02:54:55;;;;;;;16.88;4.78;;;;;;;;;;5074176;28;20022;-64
2021/10/13 02:57:23;;;;;;;19.33;4.60;;;;;;;;;;5074320;28;20020;-63
2021/10/13 02:59:51;;;;;;;15.30;4.75;;;;;;;;;;5073934;28;20086;-63
2021/10/13 03:02:24;;;;;;;16.90;4.75;;;;;;;;;;5072711;28;20029;-63
2021/10/13 03:04:52;;;;;;;15.32;4.90;;;;;;;;;;5074008;28;20028;-64
2021/10/13 03:07:20;;;;;;;16.50;4.57;;;;;;;;;;5073933;28;20063;-63
2021/10/13 03:09:50;;;;;;;16.60;5.05;;;;;;;;;;5073629;28;20028;-64
2021/10/13 03:12:16;;;;;;;15.63;4.90;;;;;;;;;;5072555;28;20492;-64
2021/10/13 03:14:43;;;;;;;19.52;5.22;;;;;;;;;;5073242;28;20033;-64
2021/10/13 03:17:09;;;;;;;15.48;4.70;;;;;;;;;;5073359;28;20029;-63
2021/10/13 03:19:36;;;;;;;17.92;5.47;;;;;;;;;;5072263;28;20095;-64
2021/10/13 03:22:03;;;;;;;19.90;5.18;;;;;;;;;;5073760;28;20033;-61
2021/10/13 03:24:29;;;;;;;18.20;4.78;;;;;;;;;;5073480;28;20036;-61
2021/10/13 03:26:54;;;;;;;20.63;5.30;;;;;;;;;;5072239;28;20476;-63
2021/10/13 03:29:20;;;;;;;18.50;4.93;;;;;;;;;;5073700;28;20021;-63
2021/10/13 03:31:47;;;;;;;16.10;5.07;;;;;;;;;;5072187;28;20388;-62
2021/10/13 03:34:16;;;;;;;20.98;5.07;;;;;;;;;;5073426;28;20040;-63
2021/10/13 03:36:49;;;;;;;17.92;4.78;;;;;;;;;;5073632;28;20021;-62
2021/10/13 03:39:16;;;;;;;17.58;5.20;;;;;;;;;;5072272;28;20032;-63
2021/10/13 03:41:43;;;;;;;18.90;5.10;;;;;;;;;;5071658;28;20020;-63
2021/10/13 03:44:09;;;;;;;15.00;4.93;;;;;;;;;;5073315;28;20381;-62
2021/10/13 03:46:35;;;;;;;19.48;6.25;;;;;;;;;;5072073;28;20024;-62
2021/10/13 03:49:01;;;;;;;15.80;5.03;;;;;;;;;;5073376;28;20021;-61
2021/10/13 03:51:28;;;;;;;18.35;4.65;;;;;;;;;;5071752;28;20054;-61
2021/10/13 03:53:54;;;;;;;14.95;5.10;;;;;;;;;;5073233;28;20108;-61
2021/10/13 03:56:20;;;;;;;15.32;4.90;;;;;;;;;;5072869;28;20127;-63
2021/10/13 03:58:46;;;;;;;22.45;5.97;;;;;;;;;;5072882;28;20028;-63
2021/10/13 04:01:12;;;;;;;17.52;4.70;;;;;;;;;;5071470;28;20455;-62
2021/10/13 04:03:39;;;;;;;15.82;5.00;;;;;;;;;;5071504;28;20400;-63
2021/10/13 04:06:05;;;;;;;15.57;5.13;;;;;;;;;;5071404;28;20017;-63
2021/10/13 04:08:31;;;;;;;26.10;6.20;;;;;;;;;;5072713;28;20020;-63
2021/10/13 04:10:57;;;;;;;15.15;5.05;;;;;;;;;;5072414;28;20460;-64
2021/10/13 04:13:23;;;;;;;20.67;5.20;;;;;;;;;;5071583;28;20083;-63
2021/10/13 04:15:49;;;;;;;16.75;4.68;;;;;;;;;;5071200;28;20071;-63
2021/10/13 04:18:15;;;;;;;15.35;4.95;;;;;;;;;;5071268;28;20388;-62
2021/10/13 04:20:41;;;;;;;19.50;4.72;;;;;;;;;;5072012;28;20094;-63
2021/10/13 04:23:07;;;;;;;18.67;6.38;;;;;;;;;;5072632;28;20519;-63
2021/10/13 04:25:33;;;;;;;15.55;4.97;;;;;;;;;;5071066;28;20024;-63
2021/10/13 04:27:59;;;;;;;15.50;5.38;;;;;;;;;;5072532;28;20028;-63
2021/10/13 04:30:25;;;;;;;18.42;6.25;;;;;;;;;;5072063;28;20029;-63
2021/10/13 04:32:51;;;;;;;15.07;5.00;;;;;;;;;;5072200;28;20100;-64
2021/10/13 04:35:17;;;;;;;13.48;4.80;;;;;;;;;;5072501;28;20070;-63
2021/10/13 04:37:43;;;;;;;15.65;5.00;;;;;;;;;;5072161;28;20494;-63
2021/10/13 04:40:09;;;;;;;20.50;5.65;;;;;;;;;;5071993;28;20036;-62
2021/10/13 04:42:35;;;;;;;14.45;4.40;;;;;;;;;;5072071;28;20110;-64
2021/10/13 04:45:01;;;;;;;17.02;4.93;;;;;;;;;;5093650;22;20036;-62
2021/10/13 04:47:27;;;;;;;18.52;5.03;;;;;;;;;;5071713;28;20036;-63
2021/10/13 04:49:53;;;;;;;14.98;5.00;;;;;;;;;;5070028;28;20016;-64
2021/10/13 04:52:19;;;;;;;23.88;8.00;;;;;;;;;;5070579;28;20476;-63
2021/10/13 04:54:45;;;;;;;19.27;6.20;;;;;;;;;;5070226;28;20060;-62
2021/10/13 04:57:11;;;;;;;14.43;4.85;;;;;;;;;;5070294;28;20417;-61
2021/10/13 04:59:37;;;;;;;21.08;5.78;;;;;;;;;;5070315;28;20028;-63
2021/10/13 05:02:03;;;;;;;16.63;5.38;;;;;;;;;;5070311;28;20055;-62
2021/10/13 05:04:29;;;;;;;17.20;5.30;;;;;;;;;;5071629;28;20065;-63
2021/10/13 05:06:56;;;;;;;16.33;5.53;;;;;;;;;;5071503;28;20104;-63
2021/10/13 05:09:23;;;;;;;18.73;5.85;;;;;;;;;;5071458;28;20063;-64
2021/10/13 05:11:49;;;;;;;19.10;6.13;;;;;;;;;;5071344;28;20029;-61
2021/10/13 05:14:15;;;;;;;17.10;5.80;;;;;;;;;;5070343;28;20029;-63
2021/10/13 05:16:41;;;;;;;18.50;5.78;;;;;;;;;;5074395;28;20021;-62
2021/10/13 05:19:07;;;;;;;18.70;5.15;;;;;;;;;;5072648;28;20024;-60
2021/10/13 05:21:33;;;;;;;17.40;5.20;;;;;;;;;;5071284;28;20043;-63
2021/10/13 05:23:59;;;;;;;16.13;4.80;;;;;;;;;;5070278;28;20028;-63
2021/10/13 05:26:25;;;;;;;15.75;5.10;;;;;;;;;;5070312;28;20032;-63
2021/10/13 05:28:51;;;;;;;19.30;5.75;;;;;;;;;;5071906;28;20016;-60
2021/10/13 05:31:18;;;;;;;16.95;4.97;;;;;;;;;;5070271;28;20533;-59
2021/10/13 05:33:44;;;;;;;16.15;5.07;;;;;;;;;;5071582;28;20082;-63
2021/10/13 05:36:10;;;;;;;15.68;4.88;;;;;;;;;;5069866;28;20369;-62
2021/10/13 05:38:36;;;;;;;20.42;6.28;;;;;;;;;;5070255;28;20031;-62
2021/10/13 05:41:03;;;;;;;17.35;4.97;;;;;;;;;;5075002;28;20555;-61
2021/10/13 05:43:29;;;;;;;14.55;5.00;;;;;;;;;;5075451;28;20475;-63
2021/10/13 05:45:55;;;;;;;22.38;7.53;;;;;;;;;;5074940;28;20457;-60
2021/10/13 05:48:21;;;;;;;17.20;5.00;;;;;;;;;;5074005;28;20033;-60
2021/10/13 05:50:47;;;;;;;17.40;4.55;;;;;;;;;;5074606;28;20104;-59
2021/10/13 05:53:13;;;;;;;15.38;4.68;;;;;;;;;;5075018;28;20095;-61
2021/10/13 05:55:39;;;;;;;17.17;5.38;;;;;;;;;;5074771;28;20543;-62
2021/10/13 05:58:06;;;;;;;27.50;5.53;;;;;;;;;;5075071;28;20028;-62
2021/10/13 06:00:32;;;;;;;18.85;5.60;;;;;;;;;;5074452;28;20028;-63
2021/10/13 06:02:59;;;;;;;19.30;6.47;;;;;;;;;;5074765;28;20021;-62
2021/10/13 06:05:25;;;;;;;16.73;5.63;;;;;;;;;;5074255;28;20377;-62
2021/10/13 06:07:51;;;;;;;17.67;5.93;;;;;;;;;;5066085;28;20559;-62
2021/10/13 06:10:17;;;;;;;19.40;5.40;;;;;;;;;;5066085;28;20113;-59
2021/10/13 06:12:43;;;;;;;16.38;5.40;;;;;;;;;;5056215;28;20108;-62
2021/10/13 06:15:09;;;;;;;18.02;5.88;;;;;;;;;;5057189;28;20078;-62
2021/10/13 06:17:35;;;;;;;17.35;5.10;;;;;;;;;;5074161;28;20093;-61
2021/10/13 06:20:01;;;;;;;17.08;5.28;;;;;;;;;;5072046;28;20385;-63
2021/10/13 06:22:27;;;;;;;16.90;5.50;;;;;;;;;;5074321;28;20021;-62
2021/10/13 06:24:55;;;;;;;19.73;5.45;;;;;;;;;;5072795;28;20051;-61
2021/10/13 06:27:21;;;;;;;17.88;5.40;;;;;;;;;;5072987;28;20112;-61
2021/10/13 06:29:47;;;;;;;16.10;5.65;;;;;;;;;;5074305;28;20497;-62
2021/10/13 06:32:13;;;;;;;22.63;5.95;;;;;;;;;;5073133;28;20025;-62
2021/10/13 06:34:39;;;;;;;19.70;6.78;;;;;;;;;;5074241;28;20175;-63
2021/10/13 06:37:05;;;;;;;26.05;6.82;;;;;;;;;;5072985;28;20021;-61
2021/10/13 06:39:31;;;;;;;21.40;6.30;;;;;;;;;;5073956;28;20032;-62
2021/10/13 06:41:57;;;;;;;17.38;6.43;;;;;;;;;;5060819;28;20041;-62
2021/10/13 06:44:23;;;;;;;19.33;5.93;;;;;;;;;;5053807;28;20021;-61
2021/10/13 06:46:50;;;;;;;20.58;6.20;;;;;;;;;;5052740;28;20019;-62
2021/10/13 06:49:16;;;;;;;16.95;6.18;;;;;;;;;;5053852;28;20037;-59
2021/10/13 06:51:42;;;;;;;17.83;6.15;;;;;;;;;;5053561;28;20017;-63
2021/10/13 06:54:08;;;;;;;16.35;6.30;;;;;;;;;;5053677;28;20028;-64
2021/10/13 06:56:35;;;;;;;18.25;6.97;;;;;;;;;;5052371;28;20032;-63
2021/10/13 06:59:01;;;;;;;19.52;6.55;;;;;;;;;;5053623;28;20027;-62
2021/10/13 07:01:27;;;;;;;24.10;7.15;;;;;;;;;;5053998;28;20100;-62
2021/10/13 07:03:53;;;;;;;18.83;7.25;;;;;;;;;;5053806;28;20071;-60
2021/10/13 07:06:19;;;;;;;19.73;7.18;;;;;;;;;;5052398;28;20098;-61
2021/10/13 07:08:46;;;;;;;20.08;7.10;;;;;;;;;;5052328;28;20032;-63
2021/10/13 07:11:12;;;;;;;20.38;6.90;;;;;;;;;;5053264;28;20076;-63
2021/10/13 07:13:38;;;;;;;21.02;6.85;;;;;;;;;;5052570;28;20587;-62
2021/10/13 07:16:04;;;;;;;19.05;7.18;;;;;;;;;;5052270;28;20033;-62
2021/10/13 07:18:31;;;;;;;21.25;6.05;;;;;;;;;;5053569;28;20036;-62
2021/10/13 07:20:57;;;;;;;20.02;6.43;;;;;;;;;;5053199;28;20021;-62
2021/10/13 07:23:23;;;;;;;16.55;6.07;;;;;;;;;;5053428;28;20024;-62
2021/10/13 07:25:49;;;;;;;18.98;6.55;;;;;;;;;;5053384;28;20021;-63
2021/10/13 07:28:15;;;;;;;22.33;7.53;;;;;;;;;;5053221;28;20100;-60
2021/10/13 07:30:41;;;;;;;22.40;7.57;;;;;;;;;;5051856;28;20044;-63
2021/10/13 07:33:07;;;;;;;18.92;6.70;;;;;;;;;;5051819;28;20036;-62
2021/10/13 07:35:33;;;;;;;19.00;6.65;;;;;;;;;;5051971;28;20052;-62
2021/10/13 07:38:00;;;;;;;18.92;5.80;;;;;;;;;;5053476;28;20473;-63
2021/10/13 07:40:26;;;;;;;17.13;5.97;;;;;;;;;;5053189;28;20063;-62
2021/10/13 07:42:52;;;;;;;18.98;6.10;;;;;;;;;;5068216;28;20405;-63
2021/10/13 07:45:18;;;;;;;20.38;7.07;;;;;;;;;;5073819;28;20083;-64
2021/10/13 07:47:44;;;;;;;28.15;6.47;;;;;;;;;;5074236;28;20029;-65
2021/10/13 07:50:11;;;;;;;19.85;6.07;;;;;;;;;;5071764;28;20412;-65
2021/10/13 07:52:37;;;;;;;17.48;6.53;;;;;;;;;;5071443;28;20130;-61
2021/10/13 07:55:03;;;;;;;19.48;6.18;;;;;;;;;;5071325;28;20126;-63
2021/10/13 07:57:29;;;;;;;26.70;7.40;;;;;;;;;;5071153;28;20373;-62
2021/10/13 07:59:55;;;;;;;21.73;7.05;;;;;;;;;;5070932;28;20032;-60
2021/10/13 08:02:21;;;;;;;22.33;6.10;;;;;;;;;;5071817;28;20035;-62
2021/10/13 08:04:47;;;;;;;23.27;6.38;;;;;;;;;;5070825;28;20466;-56
2021/10/13 08:07:13;;;;;;;23.98;6.40;;;;;;;;;;5072174;28;20097;-62
2021/10/13 08:09:40;;;;;;;27.52;7.50;;;;;;;;;;5056385;28;20021;-62
2021/10/13 08:12:06;;;;;;;20.30;6.43;;;;;;;;;;5050978;28;20116;-61
2021/10/13 08:14:32;;;;;;;20.73;6.38;;;;;;;;;;5050930;28;20029;-60
2021/10/13 08:16:58;;;;;;;21.27;6.60;;;;;;;;;;5052277;28;20031;-60
2021/10/13 08:19:24;;;;;;;21.75;6.43;;;;;;;;;;5050993;28;20090;-62
2021/10/13 08:21:51;;;;;;;23.65;7.15;;;;;;;;;;5050841;28;20036;-60
2021/10/13 08:24:17;;;;;;;22.50;7.15;;;;;;;;;;5050601;28;20067;-60
2021/10/13 08:26:43;;;;;;;20.70;6.20;;;;;;;;;;5051250;28;20024;-59
2021/10/13 08:29:09;;;;;;;19.75;5.93;;;;;;;;;;5050571;28;20426;-61
2021/10/13 08:31:35;;;;;;;20.00;6.97;;;;;;;;;;5051722;28;20032;-62
2021/10/13 08:34:01;;;;;;;18.65;6.45;;;;;;;;;;5052149;28;20029;-61
2021/10/13 08:36:27;;;;;;;24.25;6.68;;;;;;;;;;5051036;28;20090;-55
2021/10/13 08:38:53;;;;;;;18.63;5.85;;;;;;;;;;5050785;28;20025;-60
2021/10/13 08:41:19;;;;;;;24.20;6.15;;;;;;;;;;5049771;28;20033;-62
2021/10/13 08:43:45;;;;;;;22.17;6.00;;;;;;;;;;5051545;28;20036;-60
2021/10/13 08:46:11;;;;;;;22.73;7.22;;;;;;;;;;5050054;28;20032;-60
2021/10/13 08:48:37;;;;;;;25.20;6.60;;;;;;;;;;5050363;28;20445;-60
2021/10/13 08:51:04;;;;;;;19.70;5.93;;;;;;;;;;5051116;28;20484;-59
2021/10/13 08:53:30;;;;;;;27.42;6.70;;;;;;;;;;5051548;28;20047;-62
2021/10/13 08:55:56;;;;;;;23.13;6.95;;;;;;;;;;5050129;28;20029;-59
2021/10/13 08:58:27;;;;;;;28.60;7.82;;;;;;;;;;5050074;28;20029;-62
2021/10/13 09:01:07;;;;;;;29.60;6.68;;;;;;;;;;5049794;28;20025;-63
2021/10/13 09:03:37;;;;;;;20.80;5.95;;;;;;;;;;5051514;28;20021;-61
2021/10/13 09:06:14;;;;;;;22.70;5.65;;;;;;;;;;5051498;28;20474;-63
2021/10/13 09:08:53;;;;;;;20.67;5.80;;;;;;;;;;5051463;28;20029;-61
2021/10/13 09:11:29;;;;;;;17.00;5.00;;;;;;;;;;5051345;28;20032;-60
2021/10/13 09:14:14;;;;;;;23.83;6.45;;;;;;;;;;5053009;28;20047;-60
2021/10/13 09:16:59;;;;;;;25.80;6.20;;;;;;;;;;5055594;28;20033;-58
2021/10/13 09:19:28;;;;;;;24.35;5.97;;;;;;;;;;5053702;28;20481;-58
2021/10/13 09:21:54;;;;;;;17.67;5.97;;;;;;;;;;5054411;28;20025;-60
2021/10/13 09:24:20;;;;;;;14.82;5.40;;;;;;;;;;5054810;28;20062;-59
2021/10/13 09:26:47;;;;;;;15.32;5.05;;;;;;;;;;5055317;28;20017;-61
2021/10/13 09:29:13;;;;;;;14.82;5.38;;;;;;;;;;5055402;28;20064;-61
2021/10/13 09:31:39;;;;;;;15.20;5.28;;;;;;;;;;5053356;28;20017;-60
2021/10/13 09:34:09;;;;;;;16.98;6.45;;;;;;;;;;5055073;28;20044;-60
2021/10/13 09:36:42;;;;;;;18.63;5.85;;;;;;;;;;5054144;28;20029;-62
2021/10/13 09:39:13;;;;;;;16.35;5.88;;;;;;;;;;5054590;28;20096;-60
2021/10/13 09:41:55;;;;;;;18.15;6.50;;;;;;;;;;5054963;28;20028;-62
2021/10/13 09:44:21;;;;;;;15.43;5.85;;;;;;;;;;5054752;28;20021;-60
2021/10/13 09:46:48;;;;;;;18.15;6.65;;;;;;;;;;5055092;28;20021;-60
2021/10/13 09:49:14;;;;;;;15.77;6.40;;;;;;;;;;5054760;28;20021;-56
2021/10/13 09:51:40;;;;;;;16.75;5.90;;;;;;;;;;5053375;28;20565;-60
2021/10/13 09:54:10;;;;;;;17.27;6.07;;;;;;;;;;5053266;28;20029;-58
2021/10/13 09:56:37;;;;;;;16.05;6.47;;;;;;;;;;4366572;28;10002102;-61
2021/10/13 09:59:11;;;;;;;16.30;6.50;;;;;;;;;;5067331;28;20060;-61
2021/10/13 10:01:37;;;;;;;15.13;6.55;;;;;;;;;;5066262;28;20020;-61
2021/10/13 10:04:05;;;;;;;25.65;7.35;;;;;;;;;;5070401;28;20029;-62
2021/10/13 10:06:31;;;;;;;17.60;5.97;;;;;;;;;;5050760;28;20469;-59
2021/10/13 10:08:57;;;;;;;17.95;6.20;;;;;;;;;;5061256;28;20028;-61
2021/10/13 10:11:29;;;;;;;15.77;6.20;;;;;;;;;;5070097;28;20563;-60
2021/10/13 10:13:55;;;;;;;24.02;6.20;;;;;;;;;;5073509;28;20108;-62
2021/10/13 10:16:34;;;;;;;20.67;6.68;;;;;;;;;;5074914;28;20030;-61
2021/10/13 10:19:20;;;;;;;14.55;5.88;;;;;;;;;;5073724;28;20048;-61
2021/10/13 10:21:52;;;;;;;14.73;5.97;;;;;;;;;;5073242;28;20458;-59
2021/10/13 10:24:28;;;;;;;14.20;5.78;;;;;;;;;;5074511;28;20028;-60
2021/10/13 10:27:13;;;;;;;13.80;5.97;;;;;;;;;;5073514;28;20036;-62
2021/10/13 10:29:39;;;;;;;18.05;6.20;;;;;;;;;;5072896;28;20016;-59
2021/10/13 10:32:14;;;;;;;14.52;6.68;;;;;;;;;;5074424;28;20031;-62
2021/10/13 10:35:00;;;;;;;14.70;6.70;;;;;;;;;;5073619;28;20025;-60
2021/10/13 10:37:37;;;;;;;14.15;6.63;;;;;;;;;;5074375;28;20032;-61
2021/10/13 10:40:05;;;;;;;26.70;9.68;;;;;;;;;;5074035;28;20467;-62
2021/10/13 10:42:48;;;;;;;14.55;7.25;;;;;;;;;;5074725;28;20513;-61
2021/10/13 10:45:19;;;;;;;16.95;7.30;;;;;;;;;;5073512;28;20043;-62
2021/10/13 10:48:08;;;;;;;17.33;7.72;;;;;;;;;;5073320;28;20466;-62
2021/10/13 10:50:52;;;;;;;14.88;7.47;;;;;;;;;;5061795;28;20089;-59
2021/10/13 10:53:29;;;;;;;14.70;7.10;;;;;;;;;;5074488;28;20034;-61
2021/10/13 10:55:56;;;;;;;14.93;7.00;;;;;;;;;;5072707;28;20037;-63
2021/10/13 10:58:30;;;;;;;15.57;6.80;;;;;;;;;;5072405;28;20142;-59
2021/10/13 11:01:04;;;;;;;17.73;7.10;;;;;;;;;;5073119;28;20055;-61
2021/10/13 11:03:40;;;;;;;17.73;6.72;;;;;;;;;;5072247;28;20031;-60
2021/10/13 11:06:11;;;;;;;16.48;7.78;;;;;;;;;;5053265;28;20025;-62
2021/10/13 11:08:37;;;;;;;19.85;8.90;;;;;;;;;;5053693;28;20104;-62
2021/10/13 11:11:15;;;;;;;15.93;8.75;;;;;;;;;;5071286;28;20059;-63
2021/10/13 11:13:41;;;;;;;;;;;;;;;;;;5063042;28;20036;-61
2021/10/13 11:16:08;;;;;;;22.27;9.43;;;;;;;;;;5053872;28;19905;-61
2021/10/13 11:18:34;;;;;;;18.55;9.90;;;;;;;;;;5053583;28;20037;-63
2021/10/13 11:21:10;;;;;;;18.20;8.50;;;;;;;;;;5053814;28;20036;-62
2021/10/13 11:23:36;;;;;;;17.35;8.27;;;;;;;;;;5054567;28;20025;-60
2021/10/13 11:26:02;;;;;;;17.42;8.80;;;;;;;;;;5053338;28;20111;-57
2021/10/13 11:28:38;;;;;;;17.23;8.85;;;;;;;;;;5053709;28;20024;-61
2021/10/13 11:31:05;;;;;;;20.00;9.27;;;;;;;;;;5053219;28;20385;-60
2021/10/13 11:33:31;;;;;;;17.30;8.73;;;;;;;;;;5052000;28;20519;-61
2021/10/13 11:36:01;;;;;;;17.83;8.80;;;;;;;;;;5052377;28;20061;-60
2021/10/13 11:38:27;;;;;;;16.25;9.35;;;;;;;;;;5051482;28;20119;-60
2021/10/13 11:41:04;;;;;;;16.58;9.25;;;;;;;;;;5052501;28;20156;-60
2021/10/13 11:43:31;;;;;;;16.25;9.35;;;;;;;;;;5051400;28;20370;-61
2021/10/13 11:45:57;;;;;;;16.52;10.25;;;;;;;;;;5054361;28;20040;-56
2021/10/13 11:48:27;;;;;;;16.23;9.52;;;;;;;;;;5050652;28;20021;-58
2021/10/13 11:50:54;;;;;;;15.98;9.68;;;;;;;;;;5052536;28;20032;-59
2021/10/13 11:53:20;;;;;;;17.58;9.88;;;;;;;;;;5052710;28;20017;-59
2021/10/13 11:55:46;;;;;;;17.48;9.95;;;;;;;;;;5051509;28;20060;-58
2021/10/13 11:58:22;;;;;;;19.02;9.88;;;;;;;;;;5052919;28;20041;-62
2021/10/13 12:00:48;;;;;;;15.48;9.15;;;;;;;;;;5051833;28;20477;-59
2021/10/13 12:03:14;;;;;;;20.45;9.35;;;;;;;;;;5050851;28;20075;-59
2021/10/13 12:05:40;;;;;;;17.73;9.75;;;;;;;;;;5052113;28;20017;-59
2021/10/13 12:08:19;;;;;;;16.30;8.70;;;;;;;;;;5052383;28;20343;-59
2021/10/13 12:10:49;;;;;;;15.75;8.55;;;;;;;;;;5051663;28;20028;-59
2021/10/13 12:13:17;;;;;;;16.65;8.55;;;;;;;;;;5050534;28;20029;-61
2021/10/13 12:15:45;;;;;;;16.67;9.30;;;;;;;;;;5050676;28;20024;-62
2021/10/13 12:18:21;;;;;;;20.27;9.50;;;;;;;;;;5052636;28;20404;-61
2021/10/13 12:21:10;;;;;;;16.63;8.52;;;;;;;;;;5050840;28;20033;-60
2021/10/13 12:23:50;;;;;;;17.77;9.25;;;;;;;;;;5048759;28;20038;-60
2021/10/13 12:26:19;;;;;;;21.75;9.73;;;;;;;;;;5051334;28;20072;-60
2021/10/13 12:28:47;;;;;;;18.90;10.70;;;;;;;;;;5051818;28;20544;-60
2021/10/13 12:31:14;;;;;;;20.70;10.90;;;;;;;;;;5050351;28;20033;-60
2021/10/13 12:33:43;;;;;;;18.23;10.50;;;;;;;;;;5051621;28;20029;-59
2021/10/13 12:36:10;;;;;;;17.15;9.57;;;;;;;;;;5051786;28;20052;-61
2021/10/13 12:38:44;;;;;;;18.63;10.05;;;;;;;;;;5050446;28;20036;-61
2021/10/13 12:41:10;;;;;;;15.18;9.50;;;;;;;;;;5051927;28;20032;-58
2021/10/13 12:43:43;;;;;;;18.38;9.63;;;;;;;;;;5050782;28;20169;-59
2021/10/13 12:46:21;;;;;;;19.00;8.98;;;;;;;;;;5051529;28;20504;-61
2021/10/13 12:48:47;;;;;;;18.30;8.80;;;;;;;;;;5051522;28;20096;-60
2021/10/13 12:51:16;;;;;;;14.52;8.35;;;;;;;;;;5051409;28;20090;-54
2021/10/13 12:53:42;;;;;;;15.02;8.55;;;;;;;;;;5051395;28;20028;-56
2021/10/13 12:56:08;;;;;;;16.73;8.32;;;;;;;;;;5051384;28;20032;-60
2021/10/13 12:58:34;;;;;;;17.73;9.13;;;;;;;;;;5050510;28;20433;-54
2021/10/13 13:01:00;;;;;;;14.80;8.15;;;;;;;;;;5050743;28;20049;-60
2021/10/13 13:03:27;;;;;;;16.63;8.57;;;;;;;;;;5051315;28;20029;-60
2021/10/13 13:05:53;;;;;;;14.32;8.35;;;;;;;;;;5051441;28;20032;-59
2021/10/13 13:08:19;;;;;;;15.38;8.52;;;;;;;;;;5049972;28;20025;-59
2021/10/13 13:10:46;;;;;;;16.60;8.15;;;;;;;;;;5049923;28;20128;-62
2021/10/13 13:13:12;;;;;;;16.23;8.43;;;;;;;;;;5050930;28;20078;-62
2021/10/13 13:15:39;;;;;;;15.27;8.10;;;;;;;;;;5049034;28;20039;-59
2021/10/13 13:18:05;;;;;;;16.15;8.07;;;;;;;;;;5051011;28;20040;-57
2021/10/13 13:20:32;;;;;;;17.05;7.70;;;;;;;;;;5051190;28;20029;-60
2021/10/13 13:22:58;;;;;;;18.17;8.10;;;;;;;;;;5051578;28;20024;-60
2021/10/13 13:25:24;;;;;;;16.00;7.80;;;;;;;;;;5050052;28;20021;-54
2021/10/13 13:27:50;;;;;;;17.30;8.10;;;;;;;;;;5050974;28;20029;-60
2021/10/13 13:30:16;;;;;;;16.23;8.07;;;;;;;;;;5050630;28;20493;-59
2021/10/13 13:32:42;;;;;;;17.15;7.78;;;;;;;;;;5049784;28;20032;-60
2021/10/13 13:35:08;;;;;;;16.58;8.32;;;;;;;;;;5049277;28;20025;-59
2021/10/13 13:37:37;;;;;;;18.33;8.23;;;;;;;;;;5049440;28;20143;-59
2021/10/13 13:40:09;;;;;;;15.80;8.10;;;;;;;;;;5049241;28;20041;-54
2021/10/13 13:42:35;;;;;;;15.02;8.00;;;;;;;;;;5050617;28;20029;-61
2021/10/13 13:45:01;;;;;;;15.10;8.00;;;;;;;;;;5049649;28;20025;-61
2021/10/13 13:47:27;;;;;;;15.95;8.48;;;;;;;;;;5049389;28;20400;-60
2021/10/13 13:49:53;;;;;;;20.17;8.75;;;;;;;;;;5049466;28;20396;-62
2021/10/13 13:52:19;;;;;;;15.52;8.30;;;;;;;;;;5050494;28;20025;-61
2021/10/13 13:54:45;;;;;;;18.45;7.80;;;;;;;;;;5050829;28;20033;-60
2021/10/13 13:57:11;;;;;;;15.40;7.80;;;;;;;;;;5050625;28;20029;-60
2021/10/13 13:59:37;;;;;;;17.17;8.23;;;;;;;;;;5051634;28;20031;-61
2021/10/13 14:02:03;;;;;;;16.80;8.45;;;;;;;;;;5053130;28;20182;-59
2021/10/13 14:04:29;;;;;;;16.08;9.10;;;;;;;;;;5053438;28;20113;-61
2021/10/13 14:06:55;;;;;;;17.38;9.13;;;;;;;;;;5054425;28;20025;-61
2021/10/13 14:09:21;;;;;;;20.27;8.60;;;;;;;;;;5054391;28;20021;-52
2021/10/13 14:11:47;;;;;;;16.58;8.38;;;;;;;;;;5053238;28;20013;-55
2021/10/13 14:14:13;;;;;;;19.27;9.00;;;;;;;;;;5053221;28;20025;-60
2021/10/13 14:16:39;;;;;;;17.45;8.18;;;;;;;;;;5054732;28;20028;-60
2021/10/13 14:19:05;;;;;;;16.05;8.07;;;;;;;;;;4704139;28;10000158;-60
2021/10/13 14:21:31;;;;;;;18.23;9.27;;;;;;;;;;5051254;28;20017;-57
2021/10/13 14:33:08;;;;;;;16.88;9.82;;;;;;;;;;5051498;28;20419;-61
2021/10/13 14:35:35;;;;;;;15.70;9.07;;;;;;;;;;5051241;28;20617;-60
2021/10/13 14:38:01;;;;;;;17.63;9.50;;;;;;;;;;5051294;28;20128;-57
2021/10/13 14:40:27;;;;;;;18.05;9.00;;;;;;;;;;5049729;28;20029;-60
2021/10/13 14:42:53;;;;;;;15.98;8.90;;;;;;;;;;5049527;28;20139;-61
2021/10/13 14:45:19;;;;;;;16.77;9.30;;;;;;;;;;5049657;28;20643;-61